sensor_id;sensor_type;location;lat;lon;timestamp;temperature;humidity
1063;DHT22;520;50.932;6.962;2022-11-12T00:00:09;11.00;99.90
1063;DHT22;520;50.932;6.962;2022-11-12T00:03:05;10.90;99.90
1063;DHT22;520;50.932;6.962;2022-11-12T00:05:47;10.80;99.90
1063;DHT22;520;50.932;6.962;2022-11-12T00:08:24;10.70;99.90
1063;DHT22;520;50.932;6.962;2022-11-12T00:10:56;10.70;99.90
1063;DHT22;520;50.932;6.962;2022-11-12T00:13:29;10.90;99.90
1063;DHT22;520;50.932;6.962;2022-11-12T00:16:12;10.90;99.90
1063;DHT22;520;50.932;6.962;2022-11-12T00:18:48;10.80;99.90
1063;DHT22;520;50.932;6.962;2022-11-12T00:21:30;10.70;99.90
1063;DHT22;520;50.932;6.962;2022-11-12T00:24:04;10.60;99.90
1063;DHT22;520;50.932;6.962;2022-11-12T00:26:34;10.80;99.90
1063;DHT22;520;50.932;6.962;2022-11-12T00:29:06;10.90;99.90
1063;DHT22;520;50.932;6.962;2022-11-12T00:31:44;10.80;99.90
1063;DHT22;520;50.932;6.962;2022-11-12T00:34:17;10.80;99.90
1063;DHT22;520;50.932;6.962;2022-11-12T00:37:11;10.90;99.90
1063;DHT22;520;50.932;6.962;2022-11-12T00:39:41;11.00;99.90
1063;DHT22;520;50.932;6.962;2022-11-12T00:42:38;10.90;99.90
1063;DHT22;520;50.932;6.962;2022-11-12T00:45:26;10.80;99.90
1063;DHT22;520;50.932;6.962;2022-11-12T00:48:06;10.70;99.90
1063;DHT22;520;50.932;6.962;2022-11-12T00:50:45;10.80;99.90
1063;DHT22;520;50.932;6.962;2022-11-12T00:53:21;10.70;99.90
1063;DHT22;520;50.932;6.962;2022-11-12T00:56:02;10.60;99.90
1063;DHT22;520;50.932;6.962;2022-11-12T00:58:42;10.40;99.90
1063;DHT22;520;50.932;6.962;2022-11-12T01:01:21;10.40;99.90
1063;DHT22;520;50.932;6.962;2022-11-12T01:04:04;10.50;99.90
1063;DHT22;520;50.932;6.962;2022-11-12T01:06:41;10.50;99.90
1063;DHT22;520;50.932;6.962;2022-11-12T01:09:19;10.40;99.90
1063;DHT22;520;50.932;6.962;2022-11-12T01:12:03;10.30;99.90
1063;DHT22;520;50.932;6.962;2022-11-12T01:14:47;10.40;99.90
1063;DHT22;520;50.932;6.962;2022-11-12T01:17:23;10.40;99.90
1063;DHT22;520;50.932;6.962;2022-11-12T01:19:55;10.50;99.90
1063;DHT22;520;50.932;6.962;2022-11-12T01:22:24;10.30;99.90
1063;DHT22;520;50.932;6.962;2022-11-12T01:24:59;10.20;99.90
1063;DHT22;520;50.932;6.962;2022-11-12T01:27:31;10.40;99.90
1063;DHT22;520;50.932;6.962;2022-11-12T01:30:06;10.30;99.90
1063;DHT22;520;50.932;6.962;2022-11-12T01:32:38;10.20;99.90
1063;DHT22;520;50.932;6.962;2022-11-12T01:35:14;10.20;99.90
1063;DHT22;520;50.932;6.962;2022-11-12T01:38:08;10.10;99.90
1063;DHT22;520;50.932;6.962;2022-11-12T01:40:50;10.20;99.90
1063;DHT22;520;50.932;6.962;2022-11-12T01:43:29;10.30;99.90
1063;DHT22;520;50.932;6.962;2022-11-12T01:46:27;10.40;99.90
1063;DHT22;520;50.932;6.962;2022-11-12T01:49:16;10.30;99.90
1063;DHT22;520;50.932;6.962;2022-11-12T01:51:51;10.20;99.90
1063;DHT22;520;50.932;6.962;2022-11-12T01:54:22;10.20;99.90
1063;DHT22;520;50.932;6.962;2022-11-12T01:57:05;10.40;99.90
1063;DHT22;520;50.932;6.962;2022-11-12T01:59:49;10.30;99.90
1063;DHT22;520;50.932;6.962;2022-11-12T02:02:24;10.20;99.90
1063;DHT22;520;50.932;6.962;2022-11-12T02:05:17;10.20;99.90
1063;DHT22;520;50.932;6.962;2022-11-12T02:08:26;10.30;99.90
1063;DHT22;520;50.932;6.962;2022-11-12T02:11:19;10.10;99.90
1063;DHT22;520;50.932;6.962;2022-11-12T02:14:07;10.00;99.90
1063;DHT22;520;50.932;6.962;2022-11-12T02:17:15;9.90;99.90
1063;DHT22;520;50.932;6.962;2022-11-12T02:20:16;9.90;99.90
1063;DHT22;520;50.932;6.962;2022-11-12T02:23:20;9.80;99.90
1063;DHT22;520;50.932;6.962;2022-11-12T02:26:12;9.90;99.90
1063;DHT22;520;50.932;6.962;2022-11-12T02:29:16;10.10;99.90
1063;DHT22;520;50.932;6.962;2022-11-12T02:31:49;10.20;99.90
1063;DHT22;520;50.932;6.962;2022-11-12T02:34:58;10.10;99.90
1063;DHT22;520;50.932;6.962;2022-11-12T02:37:43;10.00;99.90
1063;DHT22;520;50.932;6.962;2022-11-12T02:46:18;9.80;99.90
1063;DHT22;520;50.932;6.962;2022-11-12T02:49:22;9.90;99.90
1063;DHT22;520;50.932;6.962;2022-11-12T02:55:01;9.90;99.90
1063;DHT22;520;50.932;6.962;2022-11-12T02:58:14;10.00;99.90
1063;DHT22;520;50.932;6.962;2022-11-12T03:01:11;9.80;99.90
1063;DHT22;520;50.932;6.962;2022-11-12T03:04:08;9.80;99.90
1063;DHT22;520;50.932;6.962;2022-11-12T03:06:44;9.80;99.90
1063;DHT22;520;50.932;6.962;2022-11-12T03:09:20;9.80;99.90
1063;DHT22;520;50.932;6.962;2022-11-12T03:11:57;9.80;99.90
1063;DHT22;520;50.932;6.962;2022-11-12T03:14:57;9.80;99.90
1063;DHT22;520;50.932;6.962;2022-11-12T03:17:53;9.60;99.90
1063;DHT22;520;50.932;6.962;2022-11-12T03:21:09;9.60;99.90
1063;DHT22;520;50.932;6.962;2022-11-12T03:24:08;9.80;99.90
1063;DHT22;520;50.932;6.962;2022-11-12T03:26:43;9.90;99.90
1063;DHT22;520;50.932;6.962;2022-11-12T03:29:30;9.70;99.90
1063;DHT22;520;50.932;6.962;2022-11-12T03:35:17;9.70;99.90
1063;DHT22;520;50.932;6.962;2022-11-12T03:38:05;9.80;99.90
1063;DHT22;520;50.932;6.962;2022-11-12T03:46:55;9.60;99.90
1063;DHT22;520;50.932;6.962;2022-11-12T03:49:31;9.60;99.90
1063;DHT22;520;50.932;6.962;2022-11-12T03:52:11;9.60;99.90
1063;DHT22;520;50.932;6.962;2022-11-12T03:54:51;9.60;99.90
1063;DHT22;520;50.932;6.962;2022-11-12T03:57:33;9.40;99.90
1063;DHT22;520;50.932;6.962;2022-11-12T04:00:25;9.50;99.90
1063;DHT22;520;50.932;6.962;2022-11-12T04:03:37;9.50;99.90
1063;DHT22;520;50.932;6.962;2022-11-12T04:06:15;9.50;99.90
1063;DHT22;520;50.932;6.962;2022-11-12T04:09:08;9.40;99.90
1063;DHT22;520;50.932;6.962;2022-11-12T04:11:52;9.40;99.90
1063;DHT22;520;50.932;6.962;2022-11-12T04:14:38;9.30;99.90
1063;DHT22;520;50.932;6.962;2022-11-12T04:17:24;9.30;99.90
1063;DHT22;520;50.932;6.962;2022-11-12T04:20:34;9.30;99.90
1063;DHT22;520;50.932;6.962;2022-11-12T04:23:47;9.20;99.90
1063;DHT22;520;50.932;6.962;2022-11-12T04:26:37;9.20;99.90
1063;DHT22;520;50.932;6.962;2022-11-12T04:29:24;9.10;99.90
1063;DHT22;520;50.932;6.962;2022-11-12T04:32:19;9.20;99.90
1063;DHT22;520;50.932;6.962;2022-11-12T04:35:02;9.10;99.90
1063;DHT22;520;50.932;6.962;2022-11-12T04:37:37;9.20;99.90
1063;DHT22;520;50.932;6.962;2022-11-12T04:40:19;9.20;99.90
1063;DHT22;520;50.932;6.962;2022-11-12T04:43:18;9.10;99.90
1063;DHT22;520;50.932;6.962;2022-11-12T04:46:21;9.00;99.90
1063;DHT22;520;50.932;6.962;2022-11-12T04:49:19;8.90;99.90
1063;DHT22;520;50.932;6.962;2022-11-12T04:52:05;9.00;99.90
1063;DHT22;520;50.932;6.962;2022-11-12T04:55:21;8.90;99.90
1063;DHT22;520;50.932;6.962;2022-11-12T04:57:57;8.90;99.90
1063;DHT22;520;50.932;6.962;2022-11-12T05:00:35;8.90;99.90
1063;DHT22;520;50.932;6.962;2022-11-12T05:03:35;9.00;99.90
1063;DHT22;520;50.932;6.962;2022-11-12T05:06:05;8.80;99.90
1063;DHT22;520;50.932;6.962;2022-11-12T05:09:07;8.90;99.90
1063;DHT22;520;50.932;6.962;2022-11-12T05:12:08;8.90;99.90
1063;DHT22;520;50.932;6.962;2022-11-12T05:14:45;8.80;99.90
1063;DHT22;520;50.932;6.962;2022-11-12T05:17:45;8.90;99.90
1063;DHT22;520;50.932;6.962;2022-11-12T05:20:36;8.90;99.90
1063;DHT22;520;50.932;6.962;2022-11-12T05:23:22;8.80;99.90
1063;DHT22;520;50.932;6.962;2022-11-12T05:26:28;8.80;99.90
1063;DHT22;520;50.932;6.962;2022-11-12T05:29:22;8.80;99.90
1063;DHT22;520;50.932;6.962;2022-11-12T05:32:21;8.80;99.90
1063;DHT22;520;50.932;6.962;2022-11-12T05:35:17;8.90;99.90
1063;DHT22;520;50.932;6.962;2022-11-12T05:38:02;8.90;99.90
1063;DHT22;520;50.932;6.962;2022-11-12T05:40:55;8.70;99.90
1063;DHT22;520;50.932;6.962;2022-11-12T05:43:49;8.70;99.90
1063;DHT22;520;50.932;6.962;2022-11-12T05:46:39;8.80;99.90
1063;DHT22;520;50.932;6.962;2022-11-12T05:49:23;8.50;99.90
1063;DHT22;520;50.932;6.962;2022-11-12T05:52:23;8.40;99.90
1063;DHT22;520;50.932;6.962;2022-11-12T05:55:26;8.60;99.90
1063;DHT22;520;50.932;6.962;2022-11-12T05:58:42;8.50;99.90
1063;DHT22;520;50.932;6.962;2022-11-12T06:01:29;8.50;99.90
1063;DHT22;520;50.932;6.962;2022-11-12T06:15:38;8.40;99.90
1063;DHT22;520;50.932;6.962;2022-11-12T06:18:44;8.30;99.90
1063;DHT22;520;50.932;6.962;2022-11-12T06:21:23;8.30;99.90
1063;DHT22;520;50.932;6.962;2022-11-12T06:24:06;8.20;99.90
1063;DHT22;520;50.932;6.962;2022-11-12T06:26:43;8.00;99.90
1063;DHT22;520;50.932;6.962;2022-11-12T06:29:23;8.00;99.90
1063;DHT22;520;50.932;6.962;2022-11-12T06:34:39;8.20;99.90
1063;DHT22;520;50.932;6.962;2022-11-12T06:37:31;8.20;99.90
1063;DHT22;520;50.932;6.962;2022-11-12T06:40:19;8.20;99.90
1063;DHT22;520;50.932;6.962;2022-11-12T06:43:06;8.00;99.90
1063;DHT22;520;50.932;6.962;2022-11-12T06:45:39;8.00;99.90
1063;DHT22;520;50.932;6.962;2022-11-12T06:48:16;8.00;99.90
1063;DHT22;520;50.932;6.962;2022-11-12T06:51:27;8.10;99.90
1063;DHT22;520;50.932;6.962;2022-11-12T06:54:10;8.10;99.90
1063;DHT22;520;50.932;6.962;2022-11-12T06:56:52;8.30;99.90
1063;DHT22;520;50.932;6.962;2022-11-12T06:59:38;8.50;99.90
1063;DHT22;520;50.932;6.962;2022-11-12T07:02:30;8.40;99.90
1063;DHT22;520;50.932;6.962;2022-11-12T07:05:55;8.30;99.90
1063;DHT22;520;50.932;6.962;2022-11-12T07:08:42;8.30;99.90
1063;DHT22;520;50.932;6.962;2022-11-12T07:11:21;8.50;99.90
1063;DHT22;520;50.932;6.962;2022-11-12T07:13:57;8.50;99.90
1063;DHT22;520;50.932;6.962;2022-11-12T07:16:48;8.40;99.90
1063;DHT22;520;50.932;6.962;2022-11-12T07:19:34;8.30;99.90
1063;DHT22;520;50.932;6.962;2022-11-12T07:22:16;8.60;99.90
1063;DHT22;520;50.932;6.962;2022-11-12T07:25:07;8.60;99.90
1063;DHT22;520;50.932;6.962;2022-11-12T07:28:08;8.70;99.90
1063;DHT22;520;50.932;6.962;2022-11-12T07:31:02;8.50;99.90
1063;DHT22;520;50.932;6.962;2022-11-12T07:33:39;8.50;99.90
1063;DHT22;520;50.932;6.962;2022-11-12T07:36:50;8.40;99.90
1063;DHT22;520;50.932;6.962;2022-11-12T07:39:26;8.50;99.90
1063;DHT22;520;50.932;6.962;2022-11-12T07:42:08;8.50;99.90
1063;DHT22;520;50.932;6.962;2022-11-12T07:44:56;8.50;99.90
1063;DHT22;520;50.932;6.962;2022-11-12T07:47:38;8.40;99.90
1063;DHT22;520;50.932;6.962;2022-11-12T07:50:23;8.50;99.90
1063;DHT22;520;50.932;6.962;2022-11-12T07:53:13;8.70;99.90
1063;DHT22;520;50.932;6.962;2022-11-12T07:56:04;8.70;99.90
1063;DHT22;520;50.932;6.962;2022-11-12T07:58:44;8.70;99.90
1063;DHT22;520;50.932;6.962;2022-11-12T08:01:40;8.70;99.90
1063;DHT22;520;50.932;6.962;2022-11-12T08:04:17;8.90;99.90
1063;DHT22;520;50.932;6.962;2022-11-12T08:07:07;8.90;99.90
1063;DHT22;520;50.932;6.962;2022-11-12T08:10:22;9.00;99.90
1063;DHT22;520;50.932;6.962;2022-11-12T08:12:59;9.00;99.90
1063;DHT22;520;50.932;6.962;2022-11-12T08:15:38;9.10;99.90
1063;DHT22;520;50.932;6.962;2022-11-12T08:18:31;9.20;99.90
1063;DHT22;520;50.932;6.962;2022-11-12T08:21:11;9.30;99.90
1063;DHT22;520;50.932;6.962;2022-11-12T08:23:44;9.30;99.90
1063;DHT22;520;50.932;6.962;2022-11-12T08:26:19;9.30;99.90
1063;DHT22;520;50.932;6.962;2022-11-12T08:28:58;9.20;99.90
1063;DHT22;520;50.932;6.962;2022-11-12T08:31:38;9.40;99.90
1063;DHT22;520;50.932;6.962;2022-11-12T08:34:09;9.50;99.90
1063;DHT22;520;50.932;6.962;2022-11-12T08:36:59;9.60;99.90
1063;DHT22;520;50.932;6.962;2022-11-12T08:39:36;9.30;99.90
1063;DHT22;520;50.932;6.962;2022-11-12T08:42:06;9.40;99.90
1063;DHT22;520;50.932;6.962;2022-11-12T08:44:42;9.50;99.90
1063;DHT22;520;50.932;6.962;2022-11-12T08:47:21;9.60;99.90
1063;DHT22;520;50.932;6.962;2022-11-12T08:49:52;9.70;99.90
1063;DHT22;520;50.932;6.962;2022-11-12T08:52:19;9.80;99.90
1063;DHT22;520;50.932;6.962;2022-11-12T08:54:51;9.90;99.90
1063;DHT22;520;50.932;6.962;2022-11-12T08:57:26;10.10;99.90
1063;DHT22;520;50.932;6.962;2022-11-12T09:00:01;10.10;99.90
1063;DHT22;520;50.932;6.962;2022-11-12T09:02:32;10.20;99.90
1063;DHT22;520;50.932;6.962;2022-11-12T09:05:01;10.30;99.90
1063;DHT22;520;50.932;6.962;2022-11-12T09:07:28;10.40;99.90
1063;DHT22;520;50.932;6.962;2022-11-12T09:10:17;10.40;99.90
1063;DHT22;520;50.932;6.962;2022-11-12T09:12:52;10.60;99.90
1063;DHT22;520;50.932;6.962;2022-11-12T09:15:30;10.60;99.90
1063;DHT22;520;50.932;6.962;2022-11-12T09:18:12;10.70;99.90
1063;DHT22;520;50.932;6.962;2022-11-12T09:20:47;10.60;99.90
1063;DHT22;520;50.932;6.962;2022-11-12T09:23:18;10.80;99.90
1063;DHT22;520;50.932;6.962;2022-11-12T09:25:45;11.10;99.90
1063;DHT22;520;50.932;6.962;2022-11-12T09:28:18;11.50;99.90
1063;DHT22;520;50.932;6.962;2022-11-12T09:30:48;12.80;97.80
1063;DHT22;520;50.932;6.962;2022-11-12T09:33:29;13.80;95.20
1063;DHT22;520;50.932;6.962;2022-11-12T09:36:12;14.50;93.80
1063;DHT22;520;50.932;6.962;2022-11-12T09:38:40;15.60;92.00
1063;DHT22;520;50.932;6.962;2022-11-12T09:41:41;15.70;90.60
1063;DHT22;520;50.932;6.962;2022-11-12T09:44:21;15.10;91.00
1063;DHT22;520;50.932;6.962;2022-11-12T09:47:23;14.40;92.30
1063;DHT22;520;50.932;6.962;2022-11-12T09:50:34;14.60;92.90
1063;DHT22;520;50.932;6.962;2022-11-12T09:53:31;14.90;92.70
1063;DHT22;520;50.932;6.962;2022-11-12T09:56:16;14.40;92.30
1063;DHT22;520;50.932;6.962;2022-11-12T09:58:55;13.60;93.60
1063;DHT22;520;50.932;6.962;2022-11-12T10:01:37;13.40;94.70
1063;DHT22;520;50.932;6.962;2022-11-12T10:07:40;13.00;96.10
1063;DHT22;520;50.932;6.962;2022-11-12T10:10:28;12.70;96.40
1063;DHT22;520;50.932;6.962;2022-11-12T10:13:37;12.70;96.60
1063;DHT22;520;50.932;6.962;2022-11-12T10:20:04;12.80;97.20
1063;DHT22;520;50.932;6.962;2022-11-12T10:25:42;12.60;98.00
1063;DHT22;520;50.932;6.962;2022-11-12T10:28:39;12.50;97.60
1063;DHT22;520;50.932;6.962;2022-11-12T10:31:22;12.90;97.90
1063;DHT22;520;50.932;6.962;2022-11-12T10:34:24;12.80;97.70
1063;DHT22;520;50.932;6.962;2022-11-12T10:39:55;13.20;97.30
1063;DHT22;520;50.932;6.962;2022-11-12T10:42:32;13.10;97.10
1063;DHT22;520;50.932;6.962;2022-11-12T10:45:20;13.30;97.10
1063;DHT22;520;50.932;6.962;2022-11-12T10:47:59;13.30;96.80
1063;DHT22;520;50.932;6.962;2022-11-12T10:50:42;13.40;96.90
1063;DHT22;520;50.932;6.962;2022-11-12T10:56:02;13.40;96.80
1063;DHT22;520;50.932;6.962;2022-11-12T10:58:38;13.50;96.80
1063;DHT22;520;50.932;6.962;2022-11-12T11:01:19;13.30;96.80
1063;DHT22;520;50.932;6.962;2022-11-12T11:04:24;13.30;97.10
1063;DHT22;520;50.932;6.962;2022-11-12T11:07:19;13.10;97.10
1063;DHT22;520;50.932;6.962;2022-11-12T11:10:04;13.50;97.20
1063;DHT22;520;50.932;6.962;2022-11-12T11:13:25;13.50;96.90
1063;DHT22;520;50.932;6.962;2022-11-12T11:16:02;13.60;96.90
1063;DHT22;520;50.932;6.962;2022-11-12T11:19:01;13.60;97.00
1063;DHT22;520;50.932;6.962;2022-11-12T11:30:29;13.60;97.30
1063;DHT22;520;50.932;6.962;2022-11-12T11:36:15;13.80;97.30
1063;DHT22;520;50.932;6.962;2022-11-12T11:39:23;14.10;96.80
1063;DHT22;520;50.932;6.962;2022-11-12T11:46:01;13.80;97.50
1063;DHT22;520;50.932;6.962;2022-11-12T11:48:55;13.80;97.30
1063;DHT22;520;50.932;6.962;2022-11-12T11:52:00;14.00;97.50
1063;DHT22;520;50.932;6.962;2022-11-12T11:57:51;14.00;97.80
1063;DHT22;520;50.932;6.962;2022-11-12T12:04:19;14.40;97.00
1063;DHT22;520;50.932;6.962;2022-11-12T12:11:39;14.60;96.60
1063;DHT22;520;50.932;6.962;2022-11-12T12:17:54;14.30;97.10
1063;DHT22;520;50.932;6.962;2022-11-12T12:21:40;14.40;97.60
1063;DHT22;520;50.932;6.962;2022-11-12T12:27:39;14.70;97.20
1063;DHT22;520;50.932;6.962;2022-11-12T12:34:12;15.00;96.60
1063;DHT22;520;50.932;6.962;2022-11-12T12:48:04;14.90;97.00
1063;DHT22;520;50.932;6.962;2022-11-12T13:03:52;15.20;96.30
1063;DHT22;520;50.932;6.962;2022-11-12T13:24:08;15.20;96.90
1063;DHT22;520;50.932;6.962;2022-11-12T13:26:54;15.30;96.70
1063;DHT22;520;50.932;6.962;2022-11-12T13:29:41;15.10;96.80
1063;DHT22;520;50.932;6.962;2022-11-12T13:36:38;15.70;95.80
1063;DHT22;520;50.932;6.962;2022-11-12T13:40:08;15.50;95.70
1063;DHT22;520;50.932;6.962;2022-11-12T13:49:01;15.60;96.10
1063;DHT22;520;50.932;6.962;2022-11-12T13:52:04;15.70;96.20
1063;DHT22;520;50.932;6.962;2022-11-12T13:55:21;15.70;96.00
1063;DHT22;520;50.932;6.962;2022-11-12T13:58:41;15.50;96.00
1063;DHT22;520;50.932;6.962;2022-11-12T14:28:57;15.90;95.60
1063;DHT22;520;50.932;6.962;2022-11-12T14:31:44;15.90;95.70
1063;DHT22;520;50.932;6.962;2022-11-12T14:46:22;16.00;95.00
1063;DHT22;520;50.932;6.962;2022-11-12T15:31:22;15.50;93.50
1063;DHT22;520;50.932;6.962;2022-11-12T15:37:28;15.10;94.50
1063;DHT22;520;50.932;6.962;2022-11-12T15:40:13;15.00;94.60
1063;DHT22;520;50.932;6.962;2022-11-12T15:43:14;14.90;94.90
1063;DHT22;520;50.932;6.962;2022-11-12T15:46:24;15.00;95.30
1063;DHT22;520;50.932;6.962;2022-11-12T15:49:12;15.30;94.50
1063;DHT22;520;50.932;6.962;2022-11-12T15:51:53;15.10;94.40
1063;DHT22;520;50.932;6.962;2022-11-12T15:54:28;15.20;94.60
1063;DHT22;520;50.932;6.962;2022-11-12T16:00:23;15.30;93.70
1063;DHT22;520;50.932;6.962;2022-11-12T16:03:12;15.00;94.40
1063;DHT22;520;50.932;6.962;2022-11-12T16:06:12;15.00;94.50
1063;DHT22;520;50.932;6.962;2022-11-12T16:08:45;14.80;94.60
1063;DHT22;520;50.932;6.962;2022-11-12T16:11:33;14.70;94.90
1063;DHT22;520;50.932;6.962;2022-11-12T16:14:16;14.80;95.10
1063;DHT22;520;50.932;6.962;2022-11-12T16:17:33;14.60;95.20
1063;DHT22;520;50.932;6.962;2022-11-12T16:20:17;14.70;95.10
1063;DHT22;520;50.932;6.962;2022-11-12T16:23:20;14.40;95.40
1063;DHT22;520;50.932;6.962;2022-11-12T16:26:36;14.30;95.80
1063;DHT22;520;50.932;6.962;2022-11-12T16:29:19;14.30;96.10
1063;DHT22;520;50.932;6.962;2022-11-12T16:35:41;14.40;95.60
1063;DHT22;520;50.932;6.962;2022-11-12T16:38:46;14.70;95.40
1063;DHT22;520;50.932;6.962;2022-11-12T16:41:28;14.70;95.10
1063;DHT22;520;50.932;6.962;2022-11-12T16:44:07;14.70;94.90
1063;DHT22;520;50.932;6.962;2022-11-12T16:47:03;14.70;94.80
1063;DHT22;520;50.932;6.962;2022-11-12T16:50:18;14.40;95.40
1063;DHT22;520;50.932;6.962;2022-11-12T16:52:54;14.30;95.40
1063;DHT22;520;50.932;6.962;2022-11-12T16:56:20;14.20;95.60
1063;DHT22;520;50.932;6.962;2022-11-12T16:59:23;14.50;95.10
1063;DHT22;520;50.932;6.962;2022-11-12T17:02:12;14.60;94.70
1063;DHT22;520;50.932;6.962;2022-11-12T17:05:09;14.70;94.30
1063;DHT22;520;50.932;6.962;2022-11-12T17:08:34;14.50;94.40
1063;DHT22;520;50.932;6.962;2022-11-12T17:11:19;14.30;94.70
1063;DHT22;520;50.932;6.962;2022-11-12T17:14:22;14.30;95.10
1063;DHT22;520;50.932;6.962;2022-11-12T17:17:00;14.40;94.80
1063;DHT22;520;50.932;6.962;2022-11-12T17:20:06;14.50;94.30
1063;DHT22;520;50.932;6.962;2022-11-12T17:23:02;14.20;94.40
1063;DHT22;520;50.932;6.962;2022-11-12T17:26:03;14.30;94.20
1063;DHT22;520;50.932;6.962;2022-11-12T17:29:21;14.40;93.90
1063;DHT22;520;50.932;6.962;2022-11-12T17:32:00;14.50;93.50
1063;DHT22;520;50.932;6.962;2022-11-12T17:34:58;14.40;93.40
1063;DHT22;520;50.932;6.962;2022-11-12T17:38:02;14.40;93.50
1063;DHT22;520;50.932;6.962;2022-11-12T17:40:45;14.30;93.60
1063;DHT22;520;50.932;6.962;2022-11-12T17:43:43;14.30;94.10
1063;DHT22;520;50.932;6.962;2022-11-12T17:50:13;14.10;93.30
1063;DHT22;520;50.932;6.962;2022-11-12T17:53:32;14.00;93.70
1063;DHT22;520;50.932;6.962;2022-11-12T18:00:01;14.00;93.60
1063;DHT22;520;50.932;6.962;2022-11-12T18:02:56;14.00;93.40
1063;DHT22;520;50.932;6.962;2022-11-12T18:05:54;13.90;93.50
1063;DHT22;520;50.932;6.962;2022-11-12T18:08:56;13.80;93.90
1063;DHT22;520;50.932;6.962;2022-11-12T18:12:00;13.80;94.30
1063;DHT22;520;50.932;6.962;2022-11-12T18:14:56;13.90;94.10
1063;DHT22;520;50.932;6.962;2022-11-12T18:17:45;13.80;94.10
1063;DHT22;520;50.932;6.962;2022-11-12T18:20:44;13.80;93.90
1063;DHT22;520;50.932;6.962;2022-11-12T18:23:21;13.60;93.90
1063;DHT22;520;50.932;6.962;2022-11-12T18:26:07;13.80;93.60
1063;DHT22;520;50.932;6.962;2022-11-12T18:28:58;13.80;93.60
1063;DHT22;520;50.932;6.962;2022-11-12T18:35:15;13.90;93.70
1063;DHT22;520;50.932;6.962;2022-11-12T18:38:23;14.00;93.30
1063;DHT22;520;50.932;6.962;2022-11-12T18:41:24;14.00;93.10
1063;DHT22;520;50.932;6.962;2022-11-12T18:44:22;13.90;93.30
1063;DHT22;520;50.932;6.962;2022-11-12T18:47:08;13.90;93.40
1063;DHT22;520;50.932;6.962;2022-11-12T18:50:01;13.90;93.50
1063;DHT22;520;50.932;6.962;2022-11-12T18:52:52;13.90;93.30
1063;DHT22;520;50.932;6.962;2022-11-12T18:55:38;14.00;93.20
1063;DHT22;520;50.932;6.962;2022-11-12T18:58:21;13.90;93.50
1063;DHT22;520;50.932;6.962;2022-11-12T19:01:21;13.70;93.70
1063;DHT22;520;50.932;6.962;2022-11-12T19:03:55;13.40;94.00
1063;DHT22;520;50.932;6.962;2022-11-12T19:06:28;13.60;94.50
1063;DHT22;520;50.932;6.962;2022-11-12T19:09:20;13.50;94.20
1063;DHT22;520;50.932;6.962;2022-11-12T19:11:51;13.60;94.20
1063;DHT22;520;50.932;6.962;2022-11-12T19:14:46;13.40;94.30
1063;DHT22;520;50.932;6.962;2022-11-12T19:17:46;13.40;94.70
1063;DHT22;520;50.932;6.962;2022-11-12T19:20:35;13.40;94.70
1063;DHT22;520;50.932;6.962;2022-11-12T19:27:22;13.20;95.40
1063;DHT22;520;50.932;6.962;2022-11-12T19:29:59;13.30;95.30
1063;DHT22;520;50.932;6.962;2022-11-12T19:32:34;13.40;95.20
1063;DHT22;520;50.932;6.962;2022-11-12T19:35:19;13.20;95.30
1063;DHT22;520;50.932;6.962;2022-11-12T19:38:37;13.20;95.70
1063;DHT22;520;50.932;6.962;2022-11-12T19:41:27;13.10;95.70
1063;DHT22;520;50.932;6.962;2022-11-12T19:44:31;12.90;96.40
1063;DHT22;520;50.932;6.962;2022-11-12T19:50:20;13.20;96.10
1063;DHT22;520;50.932;6.962;2022-11-12T19:53:07;13.00;96.40
1063;DHT22;520;50.932;6.962;2022-11-12T19:55:41;13.00;97.00
1063;DHT22;520;50.932;6.962;2022-11-12T19:58:54;12.80;97.10
1063;DHT22;520;50.932;6.962;2022-11-12T20:05:13;12.60;98.00
1063;DHT22;520;50.932;6.962;2022-11-12T20:08:09;12.70;98.20
1063;DHT22;520;50.932;6.962;2022-11-12T20:10:39;12.70;98.00
1063;DHT22;520;50.932;6.962;2022-11-12T20:13:17;12.60;98.20
1063;DHT22;520;50.932;6.962;2022-11-12T20:16:03;12.60;98.30
1063;DHT22;520;50.932;6.962;2022-11-12T20:18:52;12.50;98.20
1063;DHT22;520;50.932;6.962;2022-11-12T20:22:00;12.50;98.80
1063;DHT22;520;50.932;6.962;2022-11-12T20:25:10;12.50;98.20
1063;DHT22;520;50.932;6.962;2022-11-12T20:27:46;12.20;98.70
1063;DHT22;520;50.932;6.962;2022-11-12T20:30:39;12.30;98.90
1063;DHT22;520;50.932;6.962;2022-11-12T20:33:22;12.30;98.80
1063;DHT22;520;50.932;6.962;2022-11-12T20:36:00;12.30;98.80
1063;DHT22;520;50.932;6.962;2022-11-12T20:38:51;12.10;98.90
1063;DHT22;520;50.932;6.962;2022-11-12T20:41:42;12.10;99.10
1063;DHT22;520;50.932;6.962;2022-11-12T20:44:50;12.30;98.70
1063;DHT22;520;50.932;6.962;2022-11-12T20:47:35;12.20;98.70
1063;DHT22;520;50.932;6.962;2022-11-12T20:50:30;12.20;98.70
1063;DHT22;520;50.932;6.962;2022-11-12T20:53:35;12.10;99.00
1063;DHT22;520;50.932;6.962;2022-11-12T20:56:34;12.10;98.90
1063;DHT22;520;50.932;6.962;2022-11-12T20:59:23;12.20;99.00
1063;DHT22;520;50.932;6.962;2022-11-12T21:02:10;12.10;99.10
1063;DHT22;520;50.932;6.962;2022-11-12T21:04:41;12.00;99.10
1063;DHT22;520;50.932;6.962;2022-11-12T21:07:14;12.10;99.30
1063;DHT22;520;50.932;6.962;2022-11-12T21:10:08;12.00;99.40
1063;DHT22;520;50.932;6.962;2022-11-12T21:12:49;11.80;99.70
1063;DHT22;520;50.932;6.962;2022-11-12T21:15:54;11.90;99.90
1063;DHT22;520;50.932;6.962;2022-11-12T21:19:12;11.90;99.60
1063;DHT22;520;50.932;6.962;2022-11-12T21:22:25;11.90;99.80
1063;DHT22;520;50.932;6.962;2022-11-12T21:25:39;11.90;99.90
1063;DHT22;520;50.932;6.962;2022-11-12T21:28:31;11.80;99.90
1063;DHT22;520;50.932;6.962;2022-11-12T21:35:32;11.60;99.90
1063;DHT22;520;50.932;6.962;2022-11-12T21:38:45;11.60;99.90
1063;DHT22;520;50.932;6.962;2022-11-12T21:44:52;11.50;99.90
1063;DHT22;520;50.932;6.962;2022-11-12T21:47:59;11.40;99.90
1063;DHT22;520;50.932;6.962;2022-11-12T21:50:44;11.50;99.90
1063;DHT22;520;50.932;6.962;2022-11-12T21:54:21;11.40;99.90
1063;DHT22;520;50.932;6.962;2022-11-12T21:57:48;11.60;99.90
1063;DHT22;520;50.932;6.962;2022-11-12T22:00:50;11.50;99.90
1063;DHT22;520;50.932;6.962;2022-11-12T22:07:31;11.30;99.90
1063;DHT22;520;50.932;6.962;2022-11-12T22:14:44;11.40;99.90
1063;DHT22;520;50.932;6.962;2022-11-12T22:17:57;11.50;99.90
1063;DHT22;520;50.932;6.962;2022-11-12T22:28:48;11.20;99.90
1063;DHT22;520;50.932;6.962;2022-11-12T22:31:42;11.10;99.90
1063;DHT22;520;50.932;6.962;2022-11-12T22:35:32;11.20;99.90
1063;DHT22;520;50.932;6.962;2022-11-12T22:38:48;11.20;99.90
1063;DHT22;520;50.932;6.962;2022-11-12T22:42:25;11.10;99.90
1063;DHT22;520;50.932;6.962;2022-11-12T22:45:44;11.00;99.90
1063;DHT22;520;50.932;6.962;2022-11-12T22:48:40;11.00;99.90
1063;DHT22;520;50.932;6.962;2022-11-12T22:51:38;10.90;99.90
1063;DHT22;520;50.932;6.962;2022-11-12T22:54:55;10.90;99.90
1063;DHT22;520;50.932;6.962;2022-11-12T23:04:59;10.80;99.90
1063;DHT22;520;50.932;6.962;2022-11-12T23:11:20;10.70;99.90
1063;DHT22;520;50.932;6.962;2022-11-12T23:14:46;10.70;99.90
1063;DHT22;520;50.932;6.962;2022-11-12T23:30:21;10.80;99.90
1063;DHT22;520;50.932;6.962;2022-11-12T23:47:04;10.90;99.90
1063;DHT22;520;50.932;6.962;2022-11-12T23:50:24;10.90;99.90
1063;DHT22;520;50.932;6.962;2022-11-12T23:53:24;10.90;99.90
1063;DHT22;520;50.932;6.962;2022-11-12T23:56:22;10.90;99.90
